Time;durP1;ratioP1;P1;durP2;ratioP2;P2;SDS_P1;SDS_P2;PMS_P1;PMS_P2;Temp;Humidity;BMP_temperature;BMP_pressure;BME280_temperature;BME280_humidity;BME280_pressure;Samples;Min_cycle;Max_cycle;Signal;HPM_P1;HPM_P2
2021/08/24 00:00:22;;;;;;;;;;;12.80;99.90;;;11.26;93.58;102233.28;2568350;30;137666;-40
2021/08/24 00:02:49;;;;;;;6.40;2.75;;;12.80;99.90;;;11.23;93.51;102240.00;2568181;30;139354;-40
2021/08/24 00:05:30;;;;;;;4.53;2.30;;;12.70;99.90;;;11.22;93.92;102250.06;2568036;30;138372;-40
2021/08/24 00:07:58;;;;;;;4.40;2.63;;;12.70;99.90;;;11.20;94.16;102241.19;2568147;30;138229;-40
2021/08/24 00:10:50;;;;;;;5.07;2.83;;;12.70;99.90;;;11.15;94.55;102237.34;2566364;30;137717;-40
2021/08/24 00:13:23;;;;;;;4.63;2.45;;;12.70;99.90;;;11.15;94.59;102243.63;2568301;30;138284;-40
2021/08/24 00:15:51;;;;;;;3.67;2.10;;;12.70;99.90;;;11.12;94.86;102244.00;2568944;30;137609;-40
2021/08/24 00:18:19;;;;;;;4.90;2.42;;;12.60;99.90;;;11.07;94.93;102240.97;2567953;30;138078;-40
2021/08/24 00:20:51;;;;;;;3.45;2.03;;;12.60;99.90;;;11.08;94.73;102237.19;2567650;30;138394;-40
2021/08/24 00:23:23;;;;;;;5.57;2.30;;;12.60;99.90;;;11.07;95.15;102243.69;2567748;30;138211;-40
2021/08/24 00:25:54;;;;;;;3.72;2.30;;;12.60;99.90;;;11.00;94.97;102239.97;2564684;30;137968;-40
2021/08/24 00:28:22;;;;;;;4.35;2.58;;;12.60;99.90;;;11.04;94.99;102250.34;2566954;30;138455;-40
2021/08/24 00:30:52;;;;;;;6.22;2.00;;;12.60;99.90;;;11.05;95.39;102260.25;2566495;30;137501;-40
2021/08/24 00:33:21;;;;;;;4.03;2.03;;;12.60;99.90;;;11.05;94.90;102252.06;2565695;30;137990;-40
2021/08/24 00:35:49;;;;;;;5.05;2.30;;;12.60;99.90;;;11.04;95.42;102252.25;2567664;30;137119;-41
2021/08/24 00:38:23;;;;;;;4.18;2.30;;;12.60;99.90;;;11.02;95.38;102254.31;2567449;30;139191;-40
2021/08/24 00:41:01;;;;;;;3.95;1.83;;;12.60;99.90;;;11.00;95.19;102250.88;2567987;30;137821;-40
2021/08/24 00:43:34;;;;;;;4.37;2.30;;;12.50;99.90;;;10.95;95.29;102237.78;2567110;30;138903;-41
2021/08/24 00:46:38;;;;;;;4.07;2.03;;;12.50;99.90;;;10.92;94.76;102252.66;2566648;30;137676;-40
2021/08/24 00:49:20;;;;;;;3.83;2.05;;;12.50;99.90;;;10.87;94.99;102246.00;2568532;30;136975;-40
2021/08/24 00:51:56;;;;;;;3.97;1.75;;;12.40;99.90;;;10.88;95.18;102255.94;2567820;30;138368;-40
2021/08/24 00:54:27;;;;;;;5.30;2.08;;;12.40;99.90;;;10.81;94.70;102246.75;2567788;30;138304;-40
2021/08/24 00:57:01;;;;;;;5.03;2.40;;;12.40;99.90;;;10.88;95.47;102251.31;2567020;30;137483;-40
2021/08/24 00:59:30;;;;;;;4.03;2.00;;;12.40;99.90;;;10.89;95.30;102252.19;2565545;30;137051;-40
2021/08/24 01:01:59;;;;;;;3.70;2.30;;;12.40;99.90;;;10.87;95.30;102244.16;2568119;30;136844;-42
2021/08/24 01:04:30;;;;;;;6.13;2.25;;;12.40;99.90;;;10.83;95.19;102251.00;2566012;30;138956;-40
2021/08/24 01:07:39;;;;;;;3.50;2.15;;;12.30;99.90;;;10.81;95.35;102249.47;2566714;30;136817;-40
2021/08/24 01:10:29;;;;;;;5.00;2.78;;;12.30;99.90;;;10.85;95.43;102253.53;2563816;30;138155;-40
2021/08/24 01:13:15;;;;;;;3.58;2.03;;;12.30;99.90;;;10.85;96.04;102245.34;2568069;30;137699;-40
2021/08/24 01:16:17;;;;;;;3.42;2.00;;;12.30;99.90;;;10.98;96.33;102253.81;2567183;30;138271;-40
2021/08/24 01:19:00;;;;;;;3.97;2.10;;;12.40;99.90;;;11.04;96.23;102246.78;2569140;30;137581;-40
2021/08/24 01:21:54;;;;;;;3.58;2.13;;;12.50;99.90;;;11.05;95.51;102249.31;2567499;30;138387;-40
2021/08/24 01:24:43;;;;;;;3.70;2.00;;;12.50;99.90;;;11.03;95.16;102253.28;2567636;30;137457;-40
2021/08/24 01:27:59;;;;;;;3.63;1.70;;;12.50;99.90;;;11.00;95.19;102249.03;2568310;30;138815;-41
2021/08/24 01:31:04;;;;;;;3.33;1.80;;;12.50;99.90;;;11.01;95.21;102256.19;2567706;30;138397;-40
2021/08/24 01:34:04;;;;;;;3.75;1.63;;;12.50;99.90;;;11.07;94.90;102252.72;2569282;30;139454;-40
2021/08/24 01:37:06;;;;;;;;;;;12.60;99.90;;;11.07;94.69;102260.06;2567418;30;137708;-41
2021/08/24 01:39:43;;;;;;;3.78;1.83;;;12.50;99.90;;;11.13;94.78;102258.47;2568365;30;138411;-42
2021/08/24 01:42:16;;;;;;;3.10;1.70;;;12.60;99.90;;;11.15;94.61;102257.28;2568844;30;136895;-40
2021/08/24 01:45:17;;;;;;;3.75;2.03;;;12.60;99.90;;;11.17;94.69;102263.41;2568116;30;138308;-40
2021/08/24 01:47:52;;;;;;;3.55;2.10;;;12.60;99.90;;;11.21;94.55;102272.09;2568645;30;137281;-40
2021/08/24 01:50:39;;;;;;;5.15;1.80;;;12.70;99.90;;;11.19;94.63;102269.53;2567958;30;138892;-42
2021/08/24 01:53:32;;;;;;;4.07;2.40;;;12.60;99.90;;;11.27;94.86;102274.09;2567895;30;137636;-40
2021/08/24 01:56:13;;;;;;;4.43;2.05;;;12.70;99.90;;;11.27;94.85;102251.38;2568058;30;137106;-40
2021/08/24 01:58:58;;;;;;;3.97;2.47;;;12.70;99.90;;;11.29;95.08;102260.28;2566696;30;137920;-40
2021/08/24 02:01:44;;;;;;;5.43;3.22;;;12.70;99.90;;;11.34;94.70;102258.66;2568418;30;138461;-40
2021/08/24 02:04:22;;;;;;;5.60;2.50;;;12.80;99.90;;;11.32;94.45;102266.22;2568362;30;138501;-40
2021/08/24 02:06:50;;;;;;;3.90;2.50;;;12.80;99.90;;;11.28;94.68;102255.84;2567037;30;138510;-40
2021/08/24 02:09:24;;;;;;;;;;;12.70;99.90;;;11.22;94.75;102265.59;2569014;30;137436;-40
2021/08/24 02:11:53;;;;;;;4.43;2.55;;;12.70;99.90;;;11.14;94.60;102273.84;2567118;30;139146;-39
2021/08/24 02:14:22;;;;;;;5.85;2.88;;;12.70;99.90;;;11.08;94.36;102265.34;2566673;30;137301;-40
2021/08/24 02:16:51;;;;;;;5.80;2.70;;;12.60;99.90;;;11.06;94.63;102263.84;2568213;30;138275;-40
2021/08/24 02:19:35;;;;;;;6.35;3.25;;;12.60;99.90;;;11.00;94.86;102268.13;2569398;30;137418;-42
2021/08/24 02:22:21;;;;;;;4.25;2.78;;;12.50;99.90;;;10.96;94.73;102265.94;2567887;30;138585;-40
2021/08/24 02:24:58;;;;;;;4.78;2.78;;;12.50;99.90;;;10.95;94.53;102262.38;2567690;30;137531;-40
2021/08/24 02:27:32;;;;;;;7.07;2.90;;;12.50;99.90;;;10.89;94.62;102266.66;2567040;30;138193;-41
2021/08/24 02:29:59;;;;;;;7.32;3.40;;;12.40;99.90;;;10.88;95.15;102269.59;2566512;30;137132;-40
2021/08/24 02:32:38;;;;;;;5.50;3.08;;;12.40;99.90;;;10.93;95.40;102273.47;2567913;30;137146;-40
2021/08/24 02:35:30;;;;;;;4.80;3.10;;;12.40;99.90;;;10.93;95.36;102272.63;2568429;30;137487;-40
2021/08/24 02:38:23;;;;;;;5.80;3.38;;;12.40;99.90;;;10.90;94.62;102271.09;2566863;30;138923;-40
2021/08/24 02:41:13;;;;;;;6.28;3.15;;;12.40;99.90;;;10.87;94.77;102276.03;2568216;30;137543;-40
2021/08/24 02:44:06;;;;;;;5.30;3.03;;;12.40;99.90;;;10.79;94.92;102282.44;2567418;30;137989;-40
2021/08/24 02:46:43;;;;;;;4.82;3.05;;;12.30;99.90;;;10.83;94.81;102278.31;2567448;30;138091;-40
2021/08/24 02:49:18;;;;;;;6.18;3.10;;;12.30;99.90;;;10.77;94.83;102281.75;2565493;30;138309;-40
2021/08/24 02:51:49;;;;;;;6.38;3.60;;;12.30;99.90;;;10.69;94.92;102288.09;2568061;30;136797;-40
2021/08/24 02:54:32;;;;;;;4.70;3.05;;;12.30;99.90;;;10.63;94.82;102288.81;2567173;30;139059;-40
2021/08/24 02:57:01;;;;;;;6.28;3.90;;;12.20;99.90;;;10.54;95.32;102281.66;2574575;30;137234;-39
2021/08/24 02:59:29;;;;;;;5.35;3.47;;;12.10;99.90;;;10.54;95.09;102290.72;2570363;30;137922;-39
2021/08/24 03:01:57;;;;;;;6.68;4.30;;;12.10;99.90;;;10.48;94.94;102286.81;2570567;30;137476;-39
2021/08/24 03:04:26;;;;;;;6.00;3.78;;;12.10;99.90;;;10.44;94.99;102284.59;2569209;30;137488;-39
2021/08/24 03:07:01;;;;;;;8.00;4.20;;;12.00;99.90;;;10.38;95.08;102288.88;2568420;30;138437;-39
2021/08/24 03:09:33;;;;;;;7.20;4.00;;;12.00;99.90;;;10.35;94.99;102295.50;2570539;30;138293;-39
2021/08/24 03:12:37;;;;;;;7.53;4.43;;;11.90;99.90;;;10.32;94.81;102292.28;2570844;30;137267;-38
2021/08/24 03:15:29;;;;;;;7.38;3.88;;;11.90;99.90;;;10.35;95.57;102297.41;2568631;30;138452;-38
2021/08/24 03:18:12;;;;;;;5.68;3.78;;;11.90;99.90;;;10.36;95.76;102296.38;2569462;30;136782;-38
2021/08/24 03:20:46;;;;;;;6.25;3.50;;;11.90;99.90;;;10.39;95.91;102293.31;2569863;30;138202;-39
2021/08/24 03:23:18;;;;;;;5.90;3.47;;;11.90;99.90;;;10.32;95.80;102303.19;2569674;30;138263;-38
2021/08/24 03:25:49;;;;;;;5.50;3.28;;;11.90;99.90;;;10.28;95.59;102301.84;2569468;30;138178;-39
2021/08/24 03:28:21;;;;;;;6.47;3.10;;;11.80;99.90;;;10.28;95.84;102304.56;2570836;30;137328;-38
2021/08/24 03:30:50;;;;;;;6.68;3.60;;;11.80;99.90;;;10.21;96.24;102301.69;2571336;30;138545;-39
2021/08/24 03:33:19;;;;;;;5.15;3.20;;;11.80;99.90;;;10.16;96.23;102302.22;2569906;30;136885;-39
2021/08/24 03:35:47;;;;;;;7.32;3.22;;;11.70;99.90;;;10.11;96.00;102306.47;2568223;30;137683;-38
2021/08/24 03:38:15;;;;;;;5.20;3.30;;;11.70;99.90;;;10.09;96.03;102309.41;2570462;30;137442;-39
2021/08/24 03:40:43;;;;;;;6.25;3.58;;;11.70;99.90;;;10.04;95.53;102300.88;2571610;30;137848;-38
2021/08/24 03:43:11;;;;;;;7.68;3.63;;;11.60;99.90;;;10.02;95.90;102308.38;2565985;30;138162;-39
2021/08/24 03:45:39;;;;;;;6.43;3.80;;;11.60;99.90;;;10.08;96.19;102300.34;2569512;30;139361;-39
2021/08/24 03:48:06;;;;;;;;;;;11.60;99.90;;;10.04;96.65;102295.41;2570152;30;137439;-38
2021/08/24 03:50:34;;;;;;;6.15;3.75;;;11.60;99.90;;;10.04;96.86;102303.59;2570012;30;138826;-38
2021/08/24 03:53:04;;;;;;;6.85;3.78;;;11.60;99.90;;;10.01;96.67;102303.94;2568843;30;138185;-38
2021/08/24 03:55:32;;;;;;;8.02;3.88;;;11.60;99.90;;;10.00;97.00;102300.38;2568315;30;138488;-39
2021/08/24 03:57:59;;;;;;;6.75;3.95;;;11.60;99.90;;;9.98;96.81;102310.59;2565551;30;138287;-38
2021/08/24 04:00:27;;;;;;;5.72;3.58;;;11.50;99.90;;;9.96;96.77;102306.34;2570068;30;138222;-39
2021/08/24 04:02:54;;;;;;;6.35;4.00;;;11.50;99.90;;;9.93;96.56;102312.97;2569151;30;137592;-38
2021/08/24 04:05:22;;;;;;;6.90;3.67;;;11.50;99.90;;;9.87;96.58;102305.50;2569044;30;138059;-39
2021/08/24 04:07:53;;;;;;;8.45;3.72;;;11.50;99.90;;;9.84;96.62;102301.25;2569638;30;138281;-38
2021/08/24 04:10:21;;;;;;;5.90;3.45;;;11.50;99.90;;;9.90;97.00;102313.31;2567968;30;138935;-38
2021/08/24 04:12:49;;;;;;;7.15;3.85;;;11.40;99.90;;;9.90;97.53;102311.47;2567702;30;137792;-38
2021/08/24 04:15:16;;;;;;;8.32;3.83;;;11.50;99.90;;;9.87;97.32;102319.13;2569966;30;137226;-39
2021/08/24 04:17:44;;;;;;;6.32;3.88;;;11.40;99.90;;;9.83;97.09;102315.03;2571190;30;137604;-39
2021/08/24 04:20:14;;;;;;;7.80;4.05;;;11.40;99.90;;;9.78;96.68;102310.09;2566976;30;137146;-38
2021/08/24 04:22:46;;;;;;;6.35;4.25;;;11.40;99.90;;;9.86;97.40;102314.69;2569122;30;137732;-39
2021/08/24 04:25:16;;;;;;;6.32;3.70;;;11.40;99.90;;;9.80;97.19;102313.50;2565728;30;139028;-38
2021/08/24 04:27:46;;;;;;;7.55;4.10;;;11.40;99.90;;;9.79;97.31;102319.97;2566131;30;138505;-39
2021/08/24 04:30:14;;;;;;;7.20;4.32;;;11.40;99.90;;;9.75;97.47;102316.75;2570002;30;138438;-38
2021/08/24 04:32:45;;;;;;;7.90;4.78;;;11.30;99.90;;;9.75;97.70;102313.16;2569465;30;137696;-38
2021/08/24 04:35:17;;;;;;;9.32;5.63;;;11.30;99.90;;;9.76;97.76;102320.31;2571667;30;138438;-38
2021/08/24 04:37:44;;;;;;;8.02;4.85;;;11.30;99.90;;;9.75;97.83;102321.34;2568709;30;137014;-38
2021/08/24 04:40:12;;;;;;;8.05;5.30;;;11.30;99.90;;;9.74;97.92;102322.34;2569504;30;137535;-38
2021/08/24 04:42:41;;;;;;;10.25;5.82;;;11.30;99.90;;;9.71;97.75;102326.28;2568513;30;137421;-39
2021/08/24 04:45:10;;;;;;;9.43;6.30;;;11.30;99.90;;;9.75;98.07;102318.59;2569722;30;138804;-38
2021/08/24 04:47:37;;;;;;;8.43;6.25;;;11.30;99.90;;;9.74;98.20;102330.53;2569702;30;137531;-38
2021/08/24 04:50:07;;;;;;;9.55;5.93;;;11.30;99.90;;;9.73;98.09;102326.09;2570327;30;137127;-38
2021/08/24 04:52:34;;;;;;;8.75;6.07;;;11.30;99.90;;;9.71;98.01;102328.16;2569595;30;137583;-39
2021/08/24 04:55:02;;;;;;;8.90;6.00;;;11.30;99.90;;;9.74;98.21;102338.72;2570421;30;138326;-38
2021/08/24 04:57:30;;;;;;;10.82;6.22;;;11.30;99.90;;;9.73;98.33;102332.41;2568801;30;137317;-39
2021/08/24 04:59:57;;;;;;;9.60;6.30;;;11.30;99.90;;;9.74;98.38;102338.72;2571057;30;138309;-39
2021/08/24 05:02:25;;;;;;;10.88;6.13;;;11.30;99.90;;;9.73;98.12;102343.31;2569468;30;138190;-39
2021/08/24 05:04:53;;;;;;;9.63;6.28;;;11.30;99.90;;;9.74;98.09;102345.03;2570960;30;139066;-38
2021/08/24 05:07:20;;;;;;;10.55;6.43;;;11.30;99.90;;;9.76;97.62;102342.13;2570791;30;137145;-39
2021/08/24 05:09:48;;;;;;;17.73;8.60;;;11.30;99.90;;;9.85;98.04;102346.56;2569415;30;137257;-39
2021/08/24 05:12:15;;;;;;;9.40;6.05;;;11.40;99.90;;;9.89;97.96;102347.91;2571348;30;137698;-39
2021/08/24 05:14:43;;;;;;;12.68;7.30;;;11.40;99.90;;;9.97;98.21;102354.38;2565511;30;137437;-38
2021/08/24 05:17:11;;;;;;;10.18;6.95;;;11.40;99.90;;;9.97;98.09;102355.25;2568939;30;137387;-38
2021/08/24 05:19:38;;;;;;;12.05;7.40;;;11.40;99.90;;;9.97;97.94;102346.22;2568142;30;138736;-39
2021/08/24 05:22:06;;;;;;;16.20;10.65;;;11.40;99.90;;;10.05;98.31;102354.38;2570801;30;137221;-39
2021/08/24 05:24:34;;;;;;;20.08;11.07;;;11.50;99.90;;;10.15;98.71;102354.19;2566810;30;138949;-38
2021/08/24 05:27:04;;;;;;;16.20;10.13;;;11.60;99.90;;;10.18;98.88;102352.00;2569015;30;137046;-38
2021/08/24 05:29:32;;;;;;;20.40;11.65;;;11.60;99.90;;;10.29;98.97;102353.50;2567036;30;139229;-39
2021/08/24 05:32:02;;;;;;;15.73;9.70;;;11.70;99.90;;;10.36;99.28;102359.13;2567014;30;137607;-39
2021/08/24 05:34:30;;;;;;;16.20;10.20;;;11.80;99.90;;;10.40;99.11;102343.25;2569428;30;138226;-39
2021/08/24 05:36:57;;;;;;;15.40;9.25;;;11.90;99.90;;;10.54;99.26;102352.63;2569201;30;137563;-38
2021/08/24 05:39:25;;;;;;;15.50;9.38;;;11.90;99.90;;;10.64;99.05;102350.56;2570198;30;138429;-39
2021/08/24 05:41:52;;;;;;;16.95;9.90;;;12.00;99.90;;;10.80;99.17;102355.09;2569039;30;136996;-39
2021/08/24 05:44:20;;;;;;;18.58;11.00;;;12.20;99.90;;;10.90;98.87;102355.72;2569534;30;138328;-38
2021/08/24 05:46:48;;;;;;;17.50;11.05;;;12.30;99.90;;;11.03;98.60;102359.78;2571041;30;136964;-39
2021/08/24 05:49:16;;;;;;;22.50;11.57;;;12.30;99.90;;;11.14;98.08;102358.50;2564808;30;138763;-38
2021/08/24 05:51:43;;;;;;;25.63;13.18;;;12.50;99.90;;;11.21;98.08;102357.63;2570133;30;138393;-38
2021/08/24 05:54:11;;;;;;;30.25;15.07;;;12.50;99.90;;;11.29;97.74;102351.28;2568265;30;138250;-38
2021/08/24 05:56:43;;;;;;;25.55;14.80;;;12.60;99.90;;;11.40;97.27;102357.34;2568304;30;137355;-39
2021/08/24 05:59:10;;;;;;;45.10;20.98;;;12.70;99.90;;;11.50;97.16;102356.09;2570945;30;138820;-39
2021/08/24 06:01:38;;;;;;;43.65;20.40;;;12.80;99.90;;;11.67;96.00;102364.19;2568665;30;137227;-38
2021/08/24 06:04:06;;;;;;;44.03;19.55;;;12.90;99.90;;;11.83;95.50;102365.09;2570173;30;137462;-38
2021/08/24 06:06:39;;;;;;;39.25;19.42;;;13.10;99.90;;;11.90;95.25;102366.06;2568505;30;137720;-38
2021/08/24 06:09:11;;;;;;;41.17;18.90;;;13.20;99.90;;;11.90;95.37;102366.88;2570488;30;138239;-38
2021/08/24 06:11:50;;;;;;;34.63;17.55;;;13.20;99.90;;;11.91;95.00;102368.59;2565883;30;137759;-39
2021/08/24 06:14:21;;;;;;;32.05;15.57;;;13.20;99.90;;;11.96;95.01;102370.78;2572254;30;138172;-39
2021/08/24 06:16:55;;;;;;;34.95;14.63;;;13.30;99.90;;;12.07;95.27;102375.00;2569111;30;137700;-39
2021/08/24 06:19:24;;;;;;;26.55;12.55;;;13.40;99.90;;;12.23;95.28;102371.25;2570388;30;138323;-39
2021/08/24 06:21:57;;;;;;;22.15;10.95;;;13.50;99.90;;;12.43;94.54;102379.78;2568693;30;137469;-39
2021/08/24 06:24:25;;;;;;;19.25;9.43;;;13.60;99.90;;;12.56;93.68;102376.38;2569318;30;138883;-38
2021/08/24 06:26:53;;;;;;;18.38;9.05;;;13.70;99.90;;;12.74;92.93;102386.13;2569986;30;137604;-39
2021/08/24 06:29:21;;;;;;;18.92;9.65;;;13.90;99.90;;;12.89;92.46;102373.28;2568832;30;137520;-39
2021/08/24 06:31:53;;;;;;;20.52;9.00;;;14.00;99.90;;;13.04;92.09;102378.75;2565995;30;138509;-39
2021/08/24 06:34:22;;;;;;;15.38;8.65;;;14.10;99.90;;;13.20;91.51;102385.03;2569834;30;137388;-41
2021/08/24 06:36:51;;;;;;;15.43;8.02;;;14.30;99.90;;;13.34;90.95;102383.31;2570765;30;137434;-39
2021/08/24 06:39:20;;;;;;;14.52;8.18;;;14.50;99.90;;;13.46;89.21;102379.06;2569031;30;137263;-39
2021/08/24 06:41:47;;;;;;;14.20;7.43;;;14.60;99.90;;;13.60;89.25;102382.78;2570940;30;138208;-39
2021/08/24 06:44:15;;;;;;;17.55;8.23;;;14.70;99.90;;;13.73;89.52;102389.44;2568556;30;139371;-38
2021/08/24 06:46:43;;;;;;;16.27;8.45;;;14.80;99.90;;;13.85;88.70;102393.38;2568722;30;137470;-38
2021/08/24 06:49:10;;;;;;;16.65;9.15;;;14.90;99.90;;;13.91;86.23;102395.34;2570652;30;137492;-38
2021/08/24 06:51:38;;;;;;;17.92;9.32;;;15.10;99.90;;;14.02;88.14;102395.84;2570702;30;138242;-39
2021/08/24 06:54:06;;;;;;;19.92;9.63;;;15.10;99.90;;;14.20;88.50;102392.63;2570005;30;138291;-38
2021/08/24 06:56:35;;;;;;;16.13;10.00;;;15.30;99.90;;;14.36;87.09;102388.75;2569175;30;138389;-39
2021/08/24 06:59:03;;;;;;;19.77;9.75;;;15.40;99.90;;;14.42;86.71;102385.19;2571766;30;138120;-40
2021/08/24 07:01:35;;;;;;;15.55;8.32;;;15.60;99.90;;;14.53;83.28;102397.53;2568921;30;137469;-39
2021/08/24 07:04:03;;;;;;;16.55;9.45;;;15.70;99.90;;;14.69;84.42;102390.84;2568492;30;137795;-38
2021/08/24 07:06:36;;;;;;;16.38;8.57;;;15.80;99.90;;;14.78;83.75;102392.41;2569390;30;136858;-39
2021/08/24 07:09:04;;;;;;;14.55;7.93;;;15.90;99.90;;;14.87;83.07;102392.28;2570057;30;137327;-40
2021/08/24 07:11:31;;;;;;;16.05;7.78;;;16.00;99.90;;;15.03;83.12;102391.06;2569039;30;138123;-39
2021/08/24 07:14:00;;;;;;;14.40;8.40;;;16.10;99.90;;;15.18;82.63;102390.94;2569483;30;138492;-38
2021/08/24 07:16:28;;;;;;;15.65;7.63;;;16.20;99.90;;;15.25;82.05;102389.03;2568614;30;137565;-39
2021/08/24 07:18:57;;;;;;;21.85;8.30;;;16.30;99.90;;;15.31;80.54;102382.72;2568132;30;139033;-39
2021/08/24 07:21:26;;;;;;;14.52;7.82;;;16.40;99.90;;;15.42;81.61;102383.19;2567345;30;137655;-39
2021/08/24 07:23:55;;;;;;;12.95;7.50;;;16.50;99.90;;;15.51;81.31;102384.69;2570702;30;137324;-38
2021/08/24 07:26:23;;;;;;;13.48;7.38;;;16.60;99.90;;;15.53;79.06;102386.19;2568205;30;137549;-39
2021/08/24 07:28:50;;;;;;;12.82;7.70;;;16.60;99.90;;;15.67;78.39;102380.69;2568450;30;138786;-39
2021/08/24 07:31:18;;;;;;;14.50;7.43;;;16.70;99.90;;;15.86;81.56;102376.25;2568509;30;136834;-40
2021/08/24 07:33:46;;;;;;;14.30;7.53;;;16.90;99.90;;;15.96;77.04;102385.00;2568912;30;137514;-39
2021/08/24 07:36:14;;;;;;;12.48;6.40;;;17.00;99.90;;;15.99;78.22;102380.97;2567166;30;138019;-39
2021/08/24 07:38:42;;;;;;;11.45;6.40;;;17.10;99.90;;;16.06;76.07;102384.59;2568510;30;138897;-39
2021/08/24 07:41:09;;;;;;;13.00;6.55;;;17.20;99.90;;;16.26;78.31;102394.72;2570313;30;136744;-39
2021/08/24 07:43:37;;;;;;;13.00;6.03;;;17.30;99.90;;;16.29;74.89;102394.28;2569568;30;138375;-39
2021/08/24 07:46:05;;;;;;;12.30;6.20;;;17.30;99.90;;;16.33;74.80;102394.72;2568655;30;138488;-39
2021/08/24 07:48:34;;;;;;;14.38;7.03;;;17.40;99.90;;;16.37;75.53;102404.25;2569150;30;138207;-39
2021/08/24 07:51:02;;;;;;;9.98;5.50;;;17.50;99.90;;;16.41;73.57;102402.75;2565722;30;138515;-39
2021/08/24 07:53:30;;;;;;;10.40;5.38;;;17.50;99.90;;;16.49;73.71;102407.22;2567595;30;139384;-39
2021/08/24 07:55:58;;;;;;;11.10;5.03;;;17.60;99.90;;;16.54;71.75;102407.41;2569732;30;137095;-39
2021/08/24 07:58:28;;;;;;;10.30;4.97;;;17.70;99.90;;;16.59;72.17;102404.88;2571154;30;138048;-40
2021/08/24 08:00:55;;;;;;;7.40;4.18;;;17.70;99.90;;;16.59;68.13;102399.38;2569076;30;137841;-39
2021/08/24 08:03:23;;;;;;;7.80;4.50;;;17.70;99.90;;;16.72;70.09;102397.63;2569417;30;139419;-39
2021/08/24 08:05:51;;;;;;;6.65;4.30;;;17.70;99.90;;;16.88;70.95;102402.69;2567413;30;137562;-39
2021/08/24 08:08:18;;;;;;;7.70;4.60;;;17.90;99.90;;;16.98;72.92;102410.53;2569676;30;137109;-39
2021/08/24 08:10:47;;;;;;;7.55;4.30;;;18.00;99.90;;;17.19;71.34;102405.78;2568354;30;137814;-39
2021/08/24 08:13:15;;;;;;;8.48;4.57;;;18.10;99.90;;;17.37;72.35;102402.28;2570691;30;138388;-39
2021/08/24 08:15:43;;;;;;;7.55;4.18;;;18.20;99.90;;;17.40;69.41;102410.16;2571531;30;137730;-39
2021/08/24 08:18:10;;;;;;;;;;;18.40;99.90;;;17.36;69.28;102426.28;2567729;30;137516;-39
2021/08/24 08:20:39;;;;;;;7.38;3.60;;;18.40;99.90;;;17.34;69.17;102416.53;2571610;30;137880;-39
2021/08/24 08:23:07;;;;;;;9.55;3.78;;;18.40;99.90;;;17.50;69.35;102420.69;2568952;30;138342;-39
2021/08/24 08:25:35;;;;;;;7.38;4.05;;;18.50;99.90;;;17.72;69.46;102417.59;2567920;30;137045;-39
2021/08/24 08:28:04;;;;;;;6.95;3.53;;;18.60;99.90;;;17.85;69.14;102412.00;2568323;30;138286;-39
2021/08/24 08:30:34;;;;;;;9.48;3.88;;;18.70;99.90;;;17.86;64.88;102416.44;2568088;30;137112;-39
2021/08/24 08:33:05;;;;;;;6.28;2.65;;;18.80;99.90;;;17.85;62.97;102411.13;2568409;30;138202;-40
2021/08/24 08:35:33;;;;;;;4.97;2.70;;;18.90;99.90;;;18.04;65.27;102409.34;2568055;30;136972;-39
2021/08/24 08:38:00;;;;;;;7.90;3.00;;;18.90;99.90;;;17.90;59.83;102408.56;2568502;30;138005;-39
2021/08/24 08:40:40;;;;;;;6.82;2.80;;;19.00;99.90;;;17.97;60.93;102407.44;2570574;30;136731;-39
2021/08/24 08:44:00;;;;;;;6.45;2.55;;;19.00;99.90;;;18.20;61.73;102408.78;2569749;30;137953;-39
2021/08/24 08:46:53;;;;;;;5.90;2.50;;;19.10;99.90;;;18.35;60.09;102407.59;2570431;30;138323;-39
2021/08/24 08:50:05;;;;;;;9.45;3.33;;;19.20;99.90;;;18.43;58.81;102406.44;2569659;30;137556;-39
2021/08/24 08:53:04;;;;;;;6.10;3.17;;;19.30;99.90;;;18.45;62.00;102405.16;2570939;30;136834;-39
2021/08/24 08:58:44;;;;;;;6.65;2.88;;;19.50;99.90;;;18.61;60.80;102402.91;2569717;30;136791;-41
2021/08/24 09:01:43;;;;;;;6.10;2.42;;;19.50;99.90;;;18.64;59.63;102394.13;2568932;30;137864;-40
2021/08/24 09:04:47;;;;;;;9.50;2.90;;;19.60;99.90;;;18.60;56.29;102395.69;2566609;30;137799;-41
2021/08/24 09:07:42;;;;;;;5.72;2.38;;;19.60;99.90;;;18.72;58.75;102399.34;2568014;30;138478;-42
2021/08/24 09:10:25;;;;;;;5.95;2.30;;;19.70;99.90;;;18.83;58.58;102397.75;2567552;30;137748;-41
2021/08/24 09:13:01;;;;;;;7.40;2.67;;;19.80;99.90;;;18.90;52.84;102394.91;2568888;30;138259;-41
2021/08/24 09:16:01;;;;;;;5.45;2.03;;;19.80;99.90;;;18.94;54.20;102396.13;2565245;30;137415;-41
2021/08/24 09:18:49;;;;;;;5.45;1.92;;;19.90;99.90;;;19.11;54.32;102391.72;2568317;30;139146;-42
2021/08/24 09:21:39;;;;;;;5.93;2.85;;;20.10;99.90;;;19.03;52.71;102392.00;2569103;30;137179;-43
2021/08/24 09:24:26;;;;;;;5.55;2.60;;;20.10;99.90;;;19.37;57.24;102388.81;2564293;30;137990;-41
2021/08/24 09:26:53;;;;;;;6.07;2.20;;;20.20;99.90;;;19.37;56.63;102381.38;2565982;30;137611;-38
2021/08/24 09:29:46;;;;;;;5.70;2.50;;;20.30;99.90;;;19.49;56.25;102391.63;2567812;30;137477;-46
2021/08/24 09:32:21;;;;;;;8.63;2.30;;;20.40;99.90;;;19.61;50.67;102378.66;2566413;30;138272;-41
2021/08/24 09:34:59;;;;;;;6.85;2.70;;;20.50;99.90;;;19.67;51.48;102387.97;2568595;30;138176;-41
2021/08/24 09:37:30;;;;;;;5.43;2.42;;;20.60;99.90;;;19.46;46.79;102378.25;2568551;30;138502;-41
2021/08/24 09:40:01;;;;;;;5.35;2.15;;;20.60;98.30;;;19.38;49.64;102383.06;2565344;30;137434;-40
2021/08/24 09:42:41;;;;;;;6.05;2.10;;;20.50;99.90;;;19.38;49.99;102365.59;2568819;30;138257;-41
2021/08/24 09:45:20;;;;;;;5.38;2.00;;;20.40;99.90;;;19.46;52.61;102375.50;2566553;30;138782;-41
2021/08/24 09:48:06;;;;;;;5.07;1.98;;;20.50;99.90;;;19.53;49.11;102373.47;2567909;30;136896;-42
2021/08/24 09:50:42;;;;;;;4.88;2.20;;;20.50;99.90;;;19.57;52.13;102373.84;2566232;30;137485;-41
2021/08/24 09:53:38;;;;;;;6.68;2.50;;;20.60;99.90;;;19.69;51.21;102380.25;2568213;30;137523;-41
2021/08/24 09:56:11;;;;;;;5.20;2.03;;;20.70;99.90;;;19.55;45.70;102376.84;2566812;30;139123;-41
2021/08/24 09:58:46;;;;;;;5.28;2.00;;;20.70;97.00;;;19.49;47.37;102369.50;2568875;30;137046;-41
2021/08/24 10:01:16;;;;;;;4.00;1.83;;;20.70;98.60;;;19.65;48.64;102374.38;2567991;30;138313;-41
2021/08/24 10:04:08;;;;;;;4.82;1.98;;;20.70;98.90;;;19.60;45.98;102371.44;2568739;30;138274;-40
2021/08/24 10:07:00;;;;;;;4.40;2.03;;;20.70;96.00;;;19.68;47.39;102376.66;2566874;30;138526;-40
2021/08/24 10:09:34;;;;;;;4.47;1.88;;;20.70;98.10;;;19.74;50.30;102372.06;2569376;30;136725;-42
2021/08/24 10:12:28;;;;;;;4.82;1.80;;;20.70;99.90;;;19.70;46.29;102370.88;2568263;30;137190;-41
2021/08/24 10:14:57;;;;;;;4.30;1.90;;;20.80;97.10;;;19.79;47.09;102372.22;2565925;30;137234;-40
2021/08/24 10:17:37;;;;;;;3.85;1.92;;;20.80;96.80;;;19.83;48.28;102372.59;2568493;30;138438;-42
2021/08/24 10:20:26;;;;;;;4.07;1.90;;;20.90;98.40;;;19.96;45.71;102364.09;2566061;30;137155;-41
2021/08/24 10:22:54;;;;;;;4.05;1.92;;;21.00;97.00;;;19.96;46.93;102377.94;2567876;30;139255;-41
2021/08/24 10:25:40;;;;;;;5.13;2.10;;;21.00;96.90;;;19.87;47.44;102353.56;2567462;30;136943;-41
2021/08/24 10:28:28;;;;;;;4.68;2.30;;;21.00;97.10;;;20.11;48.56;102365.53;2568950;30;138075;-41
2021/08/24 10:31:21;;;;;;;3.85;1.90;;;21.10;98.10;;;20.26;50.78;102363.16;2568641;30;137645;-41
2021/08/24 10:34:05;;;;;;;3.65;1.80;;;21.20;99.90;;;20.16;44.67;102368.47;2567000;30;139013;-41
2021/08/24 10:36:46;;;;;;;3.95;1.90;;;21.30;95.00;;;20.23;46.18;102373.88;2568229;30;136843;-41
2021/08/24 10:39:22;;;;;;;4.10;1.90;;;21.30;96.10;;;20.14;44.00;102362.28;2568860;30;136970;-41